sensor_id;sensor_type;location;lat;lon;timestamp;temperature;humidity
18153;DHT22;9202;51.578;7.734;2023-01-01T00:00:33;16.40;99.90
18153;DHT22;9202;51.578;7.734;2023-01-01T00:02:36;16.50;99.90
18153;DHT22;9202;51.578;7.734;2023-01-01T00:04:39;16.50;99.90
18153;DHT22;9202;51.578;7.734;2023-01-01T00:06:41;16.50;99.90
18153;DHT22;9202;51.578;7.734;2023-01-01T00:08:44;16.50;99.90
18153;DHT22;9202;51.578;7.734;2023-01-01T00:10:47;16.50;99.90
18153;DHT22;9202;51.578;7.734;2023-01-01T00:12:50;16.50;99.90
18153;DHT22;9202;51.578;7.734;2023-01-01T00:14:52;16.60;99.90
18153;DHT22;9202;51.578;7.734;2023-01-01T00:16:55;16.60;99.90
18153;DHT22;9202;51.578;7.734;2023-01-01T00:18:57;16.50;99.90
18153;DHT22;9202;51.578;7.734;2023-01-01T00:21:03;16.60;99.90
18153;DHT22;9202;51.578;7.734;2023-01-01T00:23:06;16.60;99.90
18153;DHT22;9202;51.578;7.734;2023-01-01T00:25:09;16.60;99.90
18153;DHT22;9202;51.578;7.734;2023-01-01T00:27:14;16.70;99.90
18153;DHT22;9202;51.578;7.734;2023-01-01T00:29:17;16.70;99.90
18153;DHT22;9202;51.578;7.734;2023-01-01T00:31:20;16.70;99.90
18153;DHT22;9202;51.578;7.734;2023-01-01T00:33:23;16.70;99.90
18153;DHT22;9202;51.578;7.734;2023-01-01T00:35:27;16.70;99.90
18153;DHT22;9202;51.578;7.734;2023-01-01T00:37:30;16.70;99.90
18153;DHT22;9202;51.578;7.734;2023-01-01T00:39:33;16.60;99.90
18153;DHT22;9202;51.578;7.734;2023-01-01T00:41:35;16.60;99.90
18153;DHT22;9202;51.578;7.734;2023-01-01T00:43:38;16.60;99.90
18153;DHT22;9202;51.578;7.734;2023-01-01T00:45:41;16.50;99.90
18153;DHT22;9202;51.578;7.734;2023-01-01T00:47:46;16.50;99.90
18153;DHT22;9202;51.578;7.734;2023-01-01T00:49:48;16.40;99.90
18153;DHT22;9202;51.578;7.734;2023-01-01T00:51:51;16.40;99.90
18153;DHT22;9202;51.578;7.734;2023-01-01T00:53:53;16.40;99.90
18153;DHT22;9202;51.578;7.734;2023-01-01T00:55:56;16.40;99.90
18153;DHT22;9202;51.578;7.734;2023-01-01T00:57:59;16.40;99.90
18153;DHT22;9202;51.578;7.734;2023-01-01T01:00:02;16.30;99.90
18153;DHT22;9202;51.578;7.734;2023-01-01T01:02:05;16.20;99.90
18153;DHT22;9202;51.578;7.734;2023-01-01T01:04:08;16.20;99.90
18153;DHT22;9202;51.578;7.734;2023-01-01T01:06:12;16.20;99.90
18153;DHT22;9202;51.578;7.734;2023-01-01T01:08:15;16.30;99.90
18153;DHT22;9202;51.578;7.734;2023-01-01T01:10:18;16.30;99.90
18153;DHT22;9202;51.578;7.734;2023-01-01T01:12:22;16.10;99.90
18153;DHT22;9202;51.578;7.734;2023-01-01T01:14:24;16.20;99.90
18153;DHT22;9202;51.578;7.734;2023-01-01T01:16:28;16.20;99.90
18153;DHT22;9202;51.578;7.734;2023-01-01T01:18:30;16.20;99.90
18153;DHT22;9202;51.578;7.734;2023-01-01T01:20:33;16.20;99.90
18153;DHT22;9202;51.578;7.734;2023-01-01T01:22:35;16.20;99.90
18153;DHT22;9202;51.578;7.734;2023-01-01T01:24:38;16.30;99.90
18153;DHT22;9202;51.578;7.734;2023-01-01T01:26:40;16.30;99.90
18153;DHT22;9202;51.578;7.734;2023-01-01T01:28:43;16.30;99.90
18153;DHT22;9202;51.578;7.734;2023-01-01T01:30:47;16.30;99.90
18153;DHT22;9202;51.578;7.734;2023-01-01T01:32:50;16.20;99.90
18153;DHT22;9202;51.578;7.734;2023-01-01T01:34:52;16.30;99.90
18153;DHT22;9202;51.578;7.734;2023-01-01T01:37:05;16.20;99.90
18153;DHT22;9202;51.578;7.734;2023-01-01T01:39:18;16.20;99.90
18153;DHT22;9202;51.578;7.734;2023-01-01T01:41:21;16.20;99.90
18153;DHT22;9202;51.578;7.734;2023-01-01T01:43:44;16.10;99.90
18153;DHT22;9202;51.578;7.734;2023-01-01T01:45:47;16.20;99.90
18153;DHT22;9202;51.578;7.734;2023-01-01T01:47:50;16.10;99.90
18153;DHT22;9202;51.578;7.734;2023-01-01T01:49:54;16.10;99.90
18153;DHT22;9202;51.578;7.734;2023-01-01T01:51:58;16.10;99.90
18153;DHT22;9202;51.578;7.734;2023-01-01T01:54:02;16.00;99.90
18153;DHT22;9202;51.578;7.734;2023-01-01T01:56:07;16.10;99.90
18153;DHT22;9202;51.578;7.734;2023-01-01T01:58:11;16.00;99.90
18153;DHT22;9202;51.578;7.734;2023-01-01T02:00:15;16.00;99.90
18153;DHT22;9202;51.578;7.734;2023-01-01T02:02:20;16.00;99.90
18153;DHT22;9202;51.578;7.734;2023-01-01T02:04:22;16.00;99.90
18153;DHT22;9202;51.578;7.734;2023-01-01T02:06:26;15.90;99.90
18153;DHT22;9202;51.578;7.734;2023-01-01T02:08:29;16.00;99.90
18153;DHT22;9202;51.578;7.734;2023-01-01T02:10:31;16.00;99.90
18153;DHT22;9202;51.578;7.734;2023-01-01T02:12:34;16.00;99.90
18153;DHT22;9202;51.578;7.734;2023-01-01T02:14:36;15.90;99.90
18153;DHT22;9202;51.578;7.734;2023-01-01T02:16:41;15.90;99.90
18153;DHT22;9202;51.578;7.734;2023-01-01T02:18:45;15.90;99.90
18153;DHT22;9202;51.578;7.734;2023-01-01T02:20:48;16.00;99.90
18153;DHT22;9202;51.578;7.734;2023-01-01T02:23:04;15.90;99.90
18153;DHT22;9202;51.578;7.734;2023-01-01T02:25:09;15.90;99.90
18153;DHT22;9202;51.578;7.734;2023-01-01T02:27:14;16.00;99.90
18153;DHT22;9202;51.578;7.734;2023-01-01T02:29:24;16.00;99.90
18153;DHT22;9202;51.578;7.734;2023-01-01T02:31:28;15.90;99.90
18153;DHT22;9202;51.578;7.734;2023-01-01T02:33:31;15.90;99.90
18153;DHT22;9202;51.578;7.734;2023-01-01T02:35:36;16.00;99.90
18153;DHT22;9202;51.578;7.734;2023-01-01T02:37:39;15.90;99.90
18153;DHT22;9202;51.578;7.734;2023-01-01T02:39:43;15.90;99.90
18153;DHT22;9202;51.578;7.734;2023-01-01T02:41:56;15.90;99.90
18153;DHT22;9202;51.578;7.734;2023-01-01T02:44:10;15.80;99.90
18153;DHT22;9202;51.578;7.734;2023-01-01T02:46:14;15.80;99.90
18153;DHT22;9202;51.578;7.734;2023-01-01T02:48:36;15.70;99.90
18153;DHT22;9202;51.578;7.734;2023-01-01T02:50:38;15.60;99.90
18153;DHT22;9202;51.578;7.734;2023-01-01T02:53:02;15.70;99.90
18153;DHT22;9202;51.578;7.734;2023-01-01T02:55:06;15.80;99.90
18153;DHT22;9202;51.578;7.734;2023-01-01T02:57:11;15.70;99.90
18153;DHT22;9202;51.578;7.734;2023-01-01T02:59:20;15.70;99.90
18153;DHT22;9202;51.578;7.734;2023-01-01T03:01:43;15.80;99.90
18153;DHT22;9202;51.578;7.734;2023-01-01T03:03:49;15.70;99.90
18153;DHT22;9202;51.578;7.734;2023-01-01T03:05:55;15.60;99.90
18153;DHT22;9202;51.578;7.734;2023-01-01T03:08:16;15.60;99.90
18153;DHT22;9202;51.578;7.734;2023-01-01T03:10:20;15.60;99.90
18153;DHT22;9202;51.578;7.734;2023-01-01T03:12:25;15.70;99.90
18153;DHT22;9202;51.578;7.734;2023-01-01T03:14:33;15.60;99.90
18153;DHT22;9202;51.578;7.734;2023-01-01T03:16:35;15.60;99.90
18153;DHT22;9202;51.578;7.734;2023-01-01T03:18:40;15.60;99.90
18153;DHT22;9202;51.578;7.734;2023-01-01T03:20:44;15.70;99.90
18153;DHT22;9202;51.578;7.734;2023-01-01T03:22:48;15.80;99.90
18153;DHT22;9202;51.578;7.734;2023-01-01T03:24:52;15.70;99.90
18153;DHT22;9202;51.578;7.734;2023-01-01T03:26:58;15.70;99.90
18153;DHT22;9202;51.578;7.734;2023-01-01T03:29:02;15.70;99.90
18153;DHT22;9202;51.578;7.734;2023-01-01T03:31:06;15.70;99.90
18153;DHT22;9202;51.578;7.734;2023-01-01T03:33:11;15.70;99.90
18153;DHT22;9202;51.578;7.734;2023-01-01T03:35:14;15.70;99.90
18153;DHT22;9202;51.578;7.734;2023-01-01T03:37:18;15.70;99.90
18153;DHT22;9202;51.578;7.734;2023-01-01T03:39:23;15.80;99.90
18153;DHT22;9202;51.578;7.734;2023-01-01T03:41:28;15.70;99.90
18153;DHT22;9202;51.578;7.734;2023-01-01T03:43:33;15.60;99.90
18153;DHT22;9202;51.578;7.734;2023-01-01T03:45:36;15.60;99.90
18153;DHT22;9202;51.578;7.734;2023-01-01T03:47:40;15.60;99.90
18153;DHT22;9202;51.578;7.734;2023-01-01T03:49:42;15.60;99.90
18153;DHT22;9202;51.578;7.734;2023-01-01T03:51:50;15.60;99.90
18153;DHT22;9202;51.578;7.734;2023-01-01T03:53:54;15.50;99.90
18153;DHT22;9202;51.578;7.734;2023-01-01T03:55:59;15.60;99.90
18153;DHT22;9202;51.578;7.734;2023-01-01T03:58:04;15.60;99.90
18153;DHT22;9202;51.578;7.734;2023-01-01T04:00:08;15.50;99.90
18153;DHT22;9202;51.578;7.734;2023-01-01T04:02:13;15.50;99.90
18153;DHT22;9202;51.578;7.734;2023-01-01T04:04:16;15.50;99.90
18153;DHT22;9202;51.578;7.734;2023-01-01T04:06:20;15.60;99.90
18153;DHT22;9202;51.578;7.734;2023-01-01T04:08:22;15.60;99.90
18153;DHT22;9202;51.578;7.734;2023-01-01T04:10:25;15.70;99.90
18153;DHT22;9202;51.578;7.734;2023-01-01T04:12:29;15.70;99.90
18153;DHT22;9202;51.578;7.734;2023-01-01T04:14:32;16.00;99.90
18153;DHT22;9202;51.578;7.734;2023-01-01T04:16:35;15.70;99.90
18153;DHT22;9202;51.578;7.734;2023-01-01T04:18:38;15.80;99.90
18153;DHT22;9202;51.578;7.734;2023-01-01T04:20:41;15.80;99.90
18153;DHT22;9202;51.578;7.734;2023-01-01T04:22:43;15.70;99.90
18153;DHT22;9202;51.578;7.734;2023-01-01T04:24:46;15.70;99.90
18153;DHT22;9202;51.578;7.734;2023-01-01T04:26:48;15.80;99.90
18153;DHT22;9202;51.578;7.734;2023-01-01T04:28:51;15.70;99.90
18153;DHT22;9202;51.578;7.734;2023-01-01T04:30:54;15.70;99.90
18153;DHT22;9202;51.578;7.734;2023-01-01T04:32:56;15.70;99.90
18153;DHT22;9202;51.578;7.734;2023-01-01T04:34:58;15.60;99.90
18153;DHT22;9202;51.578;7.734;2023-01-01T04:37:01;15.60;99.90
18153;DHT22;9202;51.578;7.734;2023-01-01T04:39:05;15.70;99.90
18153;DHT22;9202;51.578;7.734;2023-01-01T04:41:08;15.60;99.90
18153;DHT22;9202;51.578;7.734;2023-01-01T04:43:10;15.70;99.90
18153;DHT22;9202;51.578;7.734;2023-01-01T04:45:13;15.70;99.90
18153;DHT22;9202;51.578;7.734;2023-01-01T04:47:15;15.70;99.90
18153;DHT22;9202;51.578;7.734;2023-01-01T04:49:18;15.70;99.90
18153;DHT22;9202;51.578;7.734;2023-01-01T04:51:21;15.60;99.90
18153;DHT22;9202;51.578;7.734;2023-01-01T04:53:23;15.60;99.90
18153;DHT22;9202;51.578;7.734;2023-01-01T04:55:26;15.60;99.90
18153;DHT22;9202;51.578;7.734;2023-01-01T04:57:29;15.60;99.90
18153;DHT22;9202;51.578;7.734;2023-01-01T04:59:31;15.60;99.90
18153;DHT22;9202;51.578;7.734;2023-01-01T05:01:34;15.60;99.90
18153;DHT22;9202;51.578;7.734;2023-01-01T05:03:36;15.60;99.90
18153;DHT22;9202;51.578;7.734;2023-01-01T05:05:39;15.70;99.90
18153;DHT22;9202;51.578;7.734;2023-01-01T05:07:41;15.60;99.90
18153;DHT22;9202;51.578;7.734;2023-01-01T05:09:44;15.70;99.90
18153;DHT22;9202;51.578;7.734;2023-01-01T05:11:46;15.60;99.90
18153;DHT22;9202;51.578;7.734;2023-01-01T05:13:50;15.60;99.90
18153;DHT22;9202;51.578;7.734;2023-01-01T05:15:53;15.60;99.90
18153;DHT22;9202;51.578;7.734;2023-01-01T05:17:56;15.60;99.90
18153;DHT22;9202;51.578;7.734;2023-01-01T05:19:58;15.50;99.90
18153;DHT22;9202;51.578;7.734;2023-01-01T05:22:01;15.50;99.90
18153;DHT22;9202;51.578;7.734;2023-01-01T05:24:06;15.50;99.90
18153;DHT22;9202;51.578;7.734;2023-01-01T05:26:09;15.50;99.90
18153;DHT22;9202;51.578;7.734;2023-01-01T05:28:13;15.50;99.90
18153;DHT22;9202;51.578;7.734;2023-01-01T05:30:15;15.40;99.90
18153;DHT22;9202;51.578;7.734;2023-01-01T05:32:18;15.40;99.90
18153;DHT22;9202;51.578;7.734;2023-01-01T05:34:20;15.30;99.90
18153;DHT22;9202;51.578;7.734;2023-01-01T05:36:24;15.20;99.90
18153;DHT22;9202;51.578;7.734;2023-01-01T05:38:26;15.30;99.90
18153;DHT22;9202;51.578;7.734;2023-01-01T05:40:29;15.30;99.90
18153;DHT22;9202;51.578;7.734;2023-01-01T05:42:31;15.20;99.90
18153;DHT22;9202;51.578;7.734;2023-01-01T05:44:34;15.20;99.90
18153;DHT22;9202;51.578;7.734;2023-01-01T05:46:37;15.20;99.90
18153;DHT22;9202;51.578;7.734;2023-01-01T05:48:39;15.10;99.90
18153;DHT22;9202;51.578;7.734;2023-01-01T05:50:42;15.20;99.90
18153;DHT22;9202;51.578;7.734;2023-01-01T05:52:44;15.20;99.90
18153;DHT22;9202;51.578;7.734;2023-01-01T05:54:47;15.20;99.90
18153;DHT22;9202;51.578;7.734;2023-01-01T05:56:50;15.10;99.90
18153;DHT22;9202;51.578;7.734;2023-01-01T05:58:52;15.00;99.90
18153;DHT22;9202;51.578;7.734;2023-01-01T06:00:55;15.00;99.90
18153;DHT22;9202;51.578;7.734;2023-01-01T06:02:57;15.00;99.90
18153;DHT22;9202;51.578;7.734;2023-01-01T06:05:00;14.90;99.90
18153;DHT22;9202;51.578;7.734;2023-01-01T06:07:03;14.90;99.90
18153;DHT22;9202;51.578;7.734;2023-01-01T06:09:05;15.00;99.90
18153;DHT22;9202;51.578;7.734;2023-01-01T06:11:09;14.90;99.90
18153;DHT22;9202;51.578;7.734;2023-01-01T06:13:12;15.00;99.90
18153;DHT22;9202;51.578;7.734;2023-01-01T06:15:15;15.00;99.90
18153;DHT22;9202;51.578;7.734;2023-01-01T06:17:18;15.10;99.90
18153;DHT22;9202;51.578;7.734;2023-01-01T06:19:20;15.00;99.90
18153;DHT22;9202;51.578;7.734;2023-01-01T06:21:23;15.10;99.90
18153;DHT22;9202;51.578;7.734;2023-01-01T06:23:26;15.10;99.90
18153;DHT22;9202;51.578;7.734;2023-01-01T06:25:29;15.10;99.90
18153;DHT22;9202;51.578;7.734;2023-01-01T06:27:33;15.10;99.90
18153;DHT22;9202;51.578;7.734;2023-01-01T06:29:35;15.10;99.90
18153;DHT22;9202;51.578;7.734;2023-01-01T06:31:38;15.10;99.90
18153;DHT22;9202;51.578;7.734;2023-01-01T06:33:42;15.20;99.90
18153;DHT22;9202;51.578;7.734;2023-01-01T06:35:45;15.20;99.90
18153;DHT22;9202;51.578;7.734;2023-01-01T06:37:47;15.20;99.90
18153;DHT22;9202;51.578;7.734;2023-01-01T06:39:50;15.20;99.90
18153;DHT22;9202;51.578;7.734;2023-01-01T06:41:52;15.20;99.90
18153;DHT22;9202;51.578;7.734;2023-01-01T06:43:55;15.10;99.90
18153;DHT22;9202;51.578;7.734;2023-01-01T06:45:58;15.20;99.90
18153;DHT22;9202;51.578;7.734;2023-01-01T06:48:01;15.20;99.90
18153;DHT22;9202;51.578;7.734;2023-01-01T06:50:04;15.10;99.90
18153;DHT22;9202;51.578;7.734;2023-01-01T06:52:09;15.10;99.90
18153;DHT22;9202;51.578;7.734;2023-01-01T06:54:12;15.20;99.90
18153;DHT22;9202;51.578;7.734;2023-01-01T06:56:15;15.20;99.90
18153;DHT22;9202;51.578;7.734;2023-01-01T06:58:17;15.20;99.90
18153;DHT22;9202;51.578;7.734;2023-01-01T07:00:20;15.20;99.90
18153;DHT22;9202;51.578;7.734;2023-01-01T07:02:23;15.20;99.90
18153;DHT22;9202;51.578;7.734;2023-01-01T07:04:25;15.10;99.90
18153;DHT22;9202;51.578;7.734;2023-01-01T07:06:29;15.20;99.90
18153;DHT22;9202;51.578;7.734;2023-01-01T07:08:32;15.10;99.90
18153;DHT22;9202;51.578;7.734;2023-01-01T07:10:34;15.20;99.90
18153;DHT22;9202;51.578;7.734;2023-01-01T07:12:37;15.20;99.90
18153;DHT22;9202;51.578;7.734;2023-01-01T07:14:39;15.10;99.90
18153;DHT22;9202;51.578;7.734;2023-01-01T07:16:42;15.10;99.90
18153;DHT22;9202;51.578;7.734;2023-01-01T07:18:45;15.10;99.90
18153;DHT22;9202;51.578;7.734;2023-01-01T07:20:49;15.10;99.90
18153;DHT22;9202;51.578;7.734;2023-01-01T07:22:52;15.10;99.90
18153;DHT22;9202;51.578;7.734;2023-01-01T07:24:55;15.90;99.90
18153;DHT22;9202;51.578;7.734;2023-01-01T07:26:57;15.10;99.90
18153;DHT22;9202;51.578;7.734;2023-01-01T07:29:00;15.10;99.90
18153;DHT22;9202;51.578;7.734;2023-01-01T07:31:04;15.10;99.90
18153;DHT22;9202;51.578;7.734;2023-01-01T07:33:09;15.10;99.90
18153;DHT22;9202;51.578;7.734;2023-01-01T07:35:12;15.00;99.90
18153;DHT22;9202;51.578;7.734;2023-01-01T07:37:15;15.10;99.90
18153;DHT22;9202;51.578;7.734;2023-01-01T07:39:17;15.10;99.90
18153;DHT22;9202;51.578;7.734;2023-01-01T07:41:20;15.10;99.90
18153;DHT22;9202;51.578;7.734;2023-01-01T07:43:23;15.00;99.90
18153;DHT22;9202;51.578;7.734;2023-01-01T07:45:25;15.00;99.90
18153;DHT22;9202;51.578;7.734;2023-01-01T07:47:28;15.00;99.90
18153;DHT22;9202;51.578;7.734;2023-01-01T07:49:30;15.00;99.90
18153;DHT22;9202;51.578;7.734;2023-01-01T07:51:33;15.00;99.90
18153;DHT22;9202;51.578;7.734;2023-01-01T07:53:35;14.90;99.90
18153;DHT22;9202;51.578;7.734;2023-01-01T07:55:38;14.90;99.90
18153;DHT22;9202;51.578;7.734;2023-01-01T07:57:40;14.90;99.90
18153;DHT22;9202;51.578;7.734;2023-01-01T07:59:43;14.80;99.90
18153;DHT22;9202;51.578;7.734;2023-01-01T08:01:46;14.80;99.90
18153;DHT22;9202;51.578;7.734;2023-01-01T08:03:51;14.70;99.90
18153;DHT22;9202;51.578;7.734;2023-01-01T08:05:54;14.60;99.90
18153;DHT22;9202;51.578;7.734;2023-01-01T08:07:56;14.60;99.90
18153;DHT22;9202;51.578;7.734;2023-01-01T08:09:59;14.60;99.90
18153;DHT22;9202;51.578;7.734;2023-01-01T08:12:01;14.60;99.90
18153;DHT22;9202;51.578;7.734;2023-01-01T08:14:04;14.50;99.90
18153;DHT22;9202;51.578;7.734;2023-01-01T08:16:07;14.50;99.90
18153;DHT22;9202;51.578;7.734;2023-01-01T08:18:09;14.50;99.90
18153;DHT22;9202;51.578;7.734;2023-01-01T08:20:12;14.50;99.90
18153;DHT22;9202;51.578;7.734;2023-01-01T08:22:16;14.50;99.90
18153;DHT22;9202;51.578;7.734;2023-01-01T08:24:18;14.40;99.90
18153;DHT22;9202;51.578;7.734;2023-01-01T08:26:26;14.40;99.90
18153;DHT22;9202;51.578;7.734;2023-01-01T08:28:29;14.30;99.90
18153;DHT22;9202;51.578;7.734;2023-01-01T08:30:32;14.40;99.90
18153;DHT22;9202;51.578;7.734;2023-01-01T08:32:34;14.40;99.90
18153;DHT22;9202;51.578;7.734;2023-01-01T08:34:37;14.50;99.90
18153;DHT22;9202;51.578;7.734;2023-01-01T08:36:39;14.40;99.90
18153;DHT22;9202;51.578;7.734;2023-01-01T08:38:42;14.40;99.90
18153;DHT22;9202;51.578;7.734;2023-01-01T08:40:44;14.40;99.90
18153;DHT22;9202;51.578;7.734;2023-01-01T08:42:47;14.40;99.90
18153;DHT22;9202;51.578;7.734;2023-01-01T08:44:49;14.40;99.90
18153;DHT22;9202;51.578;7.734;2023-01-01T08:46:52;14.40;99.90
18153;DHT22;9202;51.578;7.734;2023-01-01T08:48:54;14.50;99.90
18153;DHT22;9202;51.578;7.734;2023-01-01T08:50:57;14.40;99.90
18153;DHT22;9202;51.578;7.734;2023-01-01T08:53:01;14.40;99.90
18153;DHT22;9202;51.578;7.734;2023-01-01T08:55:04;14.40;99.90
18153;DHT22;9202;51.578;7.734;2023-01-01T08:57:07;14.40;99.90
18153;DHT22;9202;51.578;7.734;2023-01-01T08:59:10;14.50;99.90
18153;DHT22;9202;51.578;7.734;2023-01-01T09:01:12;14.40;99.90
18153;DHT22;9202;51.578;7.734;2023-01-01T09:03:15;14.40;99.90
18153;DHT22;9202;51.578;7.734;2023-01-01T09:05:17;14.40;99.90
18153;DHT22;9202;51.578;7.734;2023-01-01T09:07:20;14.40;99.90
18153;DHT22;9202;51.578;7.734;2023-01-01T09:09:22;14.40;99.90
18153;DHT22;9202;51.578;7.734;2023-01-01T09:11:27;14.40;99.90
18153;DHT22;9202;51.578;7.734;2023-01-01T09:13:30;14.40;99.90
18153;DHT22;9202;51.578;7.734;2023-01-01T09:15:32;14.40;99.90
18153;DHT22;9202;51.578;7.734;2023-01-01T09:17:35;14.40;99.90
18153;DHT22;9202;51.578;7.734;2023-01-01T09:19:37;14.50;99.90
18153;DHT22;9202;51.578;7.734;2023-01-01T09:21:40;14.50;99.90
18153;DHT22;9202;51.578;7.734;2023-01-01T09:23:43;14.50;99.90
18153;DHT22;9202;51.578;7.734;2023-01-01T09:25:45;14.50;99.90
18153;DHT22;9202;51.578;7.734;2023-01-01T09:27:48;14.50;99.90
18153;DHT22;9202;51.578;7.734;2023-01-01T09:29:50;14.50;99.90
18153;DHT22;9202;51.578;7.734;2023-01-01T09:31:54;14.60;99.90
18153;DHT22;9202;51.578;7.734;2023-01-01T09:33:57;14.80;99.90
18153;DHT22;9202;51.578;7.734;2023-01-01T09:36:11;14.60;99.90
18153;DHT22;9202;51.578;7.734;2023-01-01T09:38:13;14.60;99.90
18153;DHT22;9202;51.578;7.734;2023-01-01T09:40:20;14.60;99.90
18153;DHT22;9202;51.578;7.734;2023-01-01T09:42:24;14.60;99.90
18153;DHT22;9202;51.578;7.734;2023-01-01T09:44:32;14.60;99.90
18153;DHT22;9202;51.578;7.734;2023-01-01T09:46:34;14.50;99.90
18153;DHT22;9202;51.578;7.734;2023-01-01T09:48:38;14.50;99.90
18153;DHT22;9202;51.578;7.734;2023-01-01T09:50:42;14.60;99.90
18153;DHT22;9202;51.578;7.734;2023-01-01T09:52:48;14.50;99.90
18153;DHT22;9202;51.578;7.734;2023-01-01T09:54:53;14.60;99.90
18153;DHT22;9202;51.578;7.734;2023-01-01T09:56:57;14.60;99.90
18153;DHT22;9202;51.578;7.734;2023-01-01T09:59:00;14.60;99.90
18153;DHT22;9202;51.578;7.734;2023-01-01T10:01:04;14.60;99.90
18153;DHT22;9202;51.578;7.734;2023-01-01T10:03:12;14.60;99.90
18153;DHT22;9202;51.578;7.734;2023-01-01T10:05:18;14.60;99.90
18153;DHT22;9202;51.578;7.734;2023-01-01T10:07:23;14.60;99.90
18153;DHT22;9202;51.578;7.734;2023-01-01T10:09:29;14.70;99.90
18153;DHT22;9202;51.578;7.734;2023-01-01T10:11:33;14.70;99.90
18153;DHT22;9202;51.578;7.734;2023-01-01T10:13:37;14.70;99.90
18153;DHT22;9202;51.578;7.734;2023-01-01T10:15:42;14.70;99.90
18153;DHT22;9202;51.578;7.734;2023-01-01T10:17:45;14.70;99.90
18153;DHT22;9202;51.578;7.734;2023-01-01T10:19:49;14.70;99.90
18153;DHT22;9202;51.578;7.734;2023-01-01T10:21:53;14.70;99.90
18153;DHT22;9202;51.578;7.734;2023-01-01T10:23:58;14.70;99.90
18153;DHT22;9202;51.578;7.734;2023-01-01T10:26:02;14.70;99.90
18153;DHT22;9202;51.578;7.734;2023-01-01T10:28:09;14.70;99.90
18153;DHT22;9202;51.578;7.734;2023-01-01T10:30:13;14.70;99.90
18153;DHT22;9202;51.578;7.734;2023-01-01T10:32:17;14.80;99.90
18153;DHT22;9202;51.578;7.734;2023-01-01T10:34:22;14.80;99.90
18153;DHT22;9202;51.578;7.734;2023-01-01T10:36:26;14.80;99.90
18153;DHT22;9202;51.578;7.734;2023-01-01T10:38:29;14.80;99.90
18153;DHT22;9202;51.578;7.734;2023-01-01T10:40:31;14.80;99.90
18153;DHT22;9202;51.578;7.734;2023-01-01T10:42:34;14.80;99.90
18153;DHT22;9202;51.578;7.734;2023-01-01T10:44:37;14.80;99.90
18153;DHT22;9202;51.578;7.734;2023-01-01T10:46:41;14.80;99.90
18153;DHT22;9202;51.578;7.734;2023-01-01T10:49:01;14.90;99.90
18153;DHT22;9202;51.578;7.734;2023-01-01T10:50:57;14.90;99.90
18153;DHT22;9202;51.578;7.734;2023-01-01T10:53:00;14.80;99.90
18153;DHT22;9202;51.578;7.734;2023-01-01T10:55:03;14.90;99.90
18153;DHT22;9202;51.578;7.734;2023-01-01T10:57:15;14.90;99.90
18153;DHT22;9202;51.578;7.734;2023-01-01T10:59:34;14.90;99.90
18153;DHT22;9202;51.578;7.734;2023-01-01T11:01:37;14.90;99.90
18153;DHT22;9202;51.578;7.734;2023-01-01T11:03:51;14.90;99.90
18153;DHT22;9202;51.578;7.734;2023-01-01T11:06:05;14.90;99.90
18153;DHT22;9202;51.578;7.734;2023-01-01T11:08:15;14.90;99.90
18153;DHT22;9202;51.578;7.734;2023-01-01T11:10:20;14.90;99.90
18153;DHT22;9202;51.578;7.734;2023-01-01T11:12:23;14.90;99.90
18153;DHT22;9202;51.578;7.734;2023-01-01T11:14:31;14.90;99.90
18153;DHT22;9202;51.578;7.734;2023-01-01T11:16:33;14.90;99.90
18153;DHT22;9202;51.578;7.734;2023-01-01T11:18:38;14.90;99.90
18153;DHT22;9202;51.578;7.734;2023-01-01T11:20:41;14.90;99.90
18153;DHT22;9202;51.578;7.734;2023-01-01T11:22:44;15.00;99.90
18153;DHT22;9202;51.578;7.734;2023-01-01T11:24:48;14.90;99.90
18153;DHT22;9202;51.578;7.734;2023-01-01T11:26:53;14.90;99.90
18153;DHT22;9202;51.578;7.734;2023-01-01T11:29:01;15.00;99.90
18153;DHT22;9202;51.578;7.734;2023-01-01T11:31:05;14.90;99.90
18153;DHT22;9202;51.578;7.734;2023-01-01T11:33:13;14.90;99.90
18153;DHT22;9202;51.578;7.734;2023-01-01T11:35:18;14.90;99.90
18153;DHT22;9202;51.578;7.734;2023-01-01T11:37:22;14.90;99.90
18153;DHT22;9202;51.578;7.734;2023-01-01T11:39:25;14.90;99.90
18153;DHT22;9202;51.578;7.734;2023-01-01T11:41:28;14.90;99.90
18153;DHT22;9202;51.578;7.734;2023-01-01T11:43:36;14.90;99.90
18153;DHT22;9202;51.578;7.734;2023-01-01T11:45:39;14.90;99.90
18153;DHT22;9202;51.578;7.734;2023-01-01T11:47:42;14.90;99.90
18153;DHT22;9202;51.578;7.734;2023-01-01T11:49:46;14.90;99.90
18153;DHT22;9202;51.578;7.734;2023-01-01T11:51:50;15.00;99.90
18153;DHT22;9202;51.578;7.734;2023-01-01T11:53:53;14.90;99.90
18153;DHT22;9202;51.578;7.734;2023-01-01T11:56:02;14.90;99.90
18153;DHT22;9202;51.578;7.734;2023-01-01T11:58:05;14.90;99.90
18153;DHT22;9202;51.578;7.734;2023-01-01T12:00:12;14.90;99.90
18153;DHT22;9202;51.578;7.734;2023-01-01T12:02:17;14.80;99.90
18153;DHT22;9202;51.578;7.734;2023-01-01T12:04:22;14.80;99.90
18153;DHT22;9202;51.578;7.734;2023-01-01T12:06:27;14.90;99.90
18153;DHT22;9202;51.578;7.734;2023-01-01T12:08:32;14.90;99.90
18153;DHT22;9202;51.578;7.734;2023-01-01T12:10:38;14.90;99.90
18153;DHT22;9202;51.578;7.734;2023-01-01T12:12:41;14.80;99.90
18153;DHT22;9202;51.578;7.734;2023-01-01T12:14:45;14.90;99.90
18153;DHT22;9202;51.578;7.734;2023-01-01T12:16:51;14.90;99.90
18153;DHT22;9202;51.578;7.734;2023-01-01T12:18:57;14.90;99.90
18153;DHT22;9202;51.578;7.734;2023-01-01T12:21:04;14.80;99.90
18153;DHT22;9202;51.578;7.734;2023-01-01T12:23:13;14.80;99.90
18153;DHT22;9202;51.578;7.734;2023-01-01T12:25:17;14.80;99.90
18153;DHT22;9202;51.578;7.734;2023-01-01T12:27:24;14.80;99.90
18153;DHT22;9202;51.578;7.734;2023-01-01T12:29:33;14.70;99.90
18153;DHT22;9202;51.578;7.734;2023-01-01T12:31:37;14.70;99.90
18153;DHT22;9202;51.578;7.734;2023-01-01T12:33:47;14.70;99.90
18153;DHT22;9202;51.578;7.734;2023-01-01T12:36:02;14.80;99.90
18153;DHT22;9202;51.578;7.734;2023-01-01T12:38:07;14.80;99.90
18153;DHT22;9202;51.578;7.734;2023-01-01T12:42:38;14.70;99.90
18153;DHT22;9202;51.578;7.734;2023-01-01T12:44:42;14.80;99.90
18153;DHT22;9202;51.578;7.734;2023-01-01T12:46:47;14.70;99.90
18153;DHT22;9202;51.578;7.734;2023-01-01T12:48:59;14.80;99.90
18153;DHT22;9202;51.578;7.734;2023-01-01T12:51:03;14.70;99.90
18153;DHT22;9202;51.578;7.734;2023-01-01T12:53:10;14.90;99.90
18153;DHT22;9202;51.578;7.734;2023-01-01T12:57:34;14.80;99.90
18153;DHT22;9202;51.578;7.734;2023-01-01T12:59:38;14.80;99.90
18153;DHT22;9202;51.578;7.734;2023-01-01T13:01:42;14.80;99.90
18153;DHT22;9202;51.578;7.734;2023-01-01T13:03:46;14.90;99.90
18153;DHT22;9202;51.578;7.734;2023-01-01T13:05:50;14.80;99.90
18153;DHT22;9202;51.578;7.734;2023-01-01T13:07:57;14.80;99.90
18153;DHT22;9202;51.578;7.734;2023-01-01T13:10:07;14.80;99.90
18153;DHT22;9202;51.578;7.734;2023-01-01T13:12:04;14.80;99.90
18153;DHT22;9202;51.578;7.734;2023-01-01T13:14:07;14.80;99.90
18153;DHT22;9202;51.578;7.734;2023-01-01T13:16:10;14.80;99.90
18153;DHT22;9202;51.578;7.734;2023-01-01T13:18:17;14.70;99.90
18153;DHT22;9202;51.578;7.734;2023-01-01T13:20:21;14.70;99.90